sensor_id;sensor_type;location;lat;lon;timestamp;P1;durP1;ratioP1;P2;durP2;ratioP2
46158;SDS011;31888;44.512;26.104;2023-05-17T00:01:40;18.30;;;10.43;;
46158;SDS011;31888;44.512;26.104;2023-05-17T00:04:05;18.00;;;11.48;;
46158;SDS011;31888;44.512;26.104;2023-05-17T00:06:30;26.48;;;10.60;;
46158;SDS011;31888;44.512;26.104;2023-05-17T00:08:56;22.33;;;10.50;;
46158;SDS011;31888;44.512;26.104;2023-05-17T00:11:22;25.20;;;11.05;;
46158;SDS011;31888;44.512;26.104;2023-05-17T00:13:48;22.58;;;10.40;;
46158;SDS011;31888;44.512;26.104;2023-05-17T00:16:12;20.55;;;9.93;;
46158;SDS011;31888;44.512;26.104;2023-05-17T00:18:37;18.08;;;9.48;;
46158;SDS011;31888;44.512;26.104;2023-05-17T00:21:02;25.98;;;10.25;;
46158;SDS011;31888;44.512;26.104;2023-05-17T00:23:27;21.02;;;10.02;;
46158;SDS011;31888;44.512;26.104;2023-05-17T00:25:52;24.70;;;11.73;;
46158;SDS011;31888;44.512;26.104;2023-05-17T00:28:17;25.30;;;9.80;;
46158;SDS011;31888;44.512;26.104;2023-05-17T00:30:43;27.70;;;10.43;;
46158;SDS011;31888;44.512;26.104;2023-05-17T00:33:08;19.75;;;10.30;;
46158;SDS011;31888;44.512;26.104;2023-05-17T00:35:33;24.70;;;10.35;;
46158;SDS011;31888;44.512;26.104;2023-05-17T00:37:57;18.60;;;10.82;;
46158;SDS011;31888;44.512;26.104;2023-05-17T00:40:22;25.40;;;10.63;;
46158;SDS011;31888;44.512;26.104;2023-05-17T00:42:50;22.75;;;11.40;;
46158;SDS011;31888;44.512;26.104;2023-05-17T00:45:17;23.98;;;10.18;;
46158;SDS011;31888;44.512;26.104;2023-05-17T00:47:43;24.20;;;9.77;;
46158;SDS011;31888;44.512;26.104;2023-05-17T00:50:08;23.80;;;10.48;;
46158;SDS011;31888;44.512;26.104;2023-05-17T00:52:33;23.08;;;10.25;;
46158;SDS011;31888;44.512;26.104;2023-05-17T00:54:59;17.38;;;10.10;;
46158;SDS011;31888;44.512;26.104;2023-05-17T00:57:27;17.67;;;10.15;;
46158;SDS011;31888;44.512;26.104;2023-05-17T00:59:56;18.73;;;9.82;;
46158;SDS011;31888;44.512;26.104;2023-05-17T01:02:21;20.63;;;10.63;;
46158;SDS011;31888;44.512;26.104;2023-05-17T01:04:47;22.48;;;10.30;;
46158;SDS011;31888;44.512;26.104;2023-05-17T01:07:13;18.55;;;10.35;;
46158;SDS011;31888;44.512;26.104;2023-05-17T01:09:41;17.77;;;10.25;;
46158;SDS011;31888;44.512;26.104;2023-05-17T01:12:13;21.00;;;10.32;;
46158;SDS011;31888;44.512;26.104;2023-05-17T01:14:46;20.25;;;11.00;;
46158;SDS011;31888;44.512;26.104;2023-05-17T01:17:20;23.40;;;10.32;;
46158;SDS011;31888;44.512;26.104;2023-05-17T01:19:59;23.52;;;10.57;;
46158;SDS011;31888;44.512;26.104;2023-05-17T01:22:38;16.55;;;9.38;;
46158;SDS011;31888;44.512;26.104;2023-05-17T01:25:22;21.33;;;9.90;;
46158;SDS011;31888;44.512;26.104;2023-05-17T01:27:55;20.27;;;10.45;;
46158;SDS011;31888;44.512;26.104;2023-05-17T01:32:48;24.13;;;11.15;;
46158;SDS011;31888;44.512;26.104;2023-05-17T01:35:14;17.98;;;10.10;;
46158;SDS011;31888;44.512;26.104;2023-05-17T01:37:39;19.02;;;10.50;;
46158;SDS011;31888;44.512;26.104;2023-05-17T01:40:04;20.70;;;9.65;;
46158;SDS011;31888;44.512;26.104;2023-05-17T01:42:32;26.35;;;10.75;;
46158;SDS011;31888;44.512;26.104;2023-05-17T01:45:02;20.25;;;9.85;;
46158;SDS011;31888;44.512;26.104;2023-05-17T01:47:29;18.73;;;9.75;;
46158;SDS011;31888;44.512;26.104;2023-05-17T01:50:02;18.83;;;9.73;;
46158;SDS011;31888;44.512;26.104;2023-05-17T01:52:31;20.98;;;10.45;;
46158;SDS011;31888;44.512;26.104;2023-05-17T01:55:03;15.93;;;8.65;;
46158;SDS011;31888;44.512;26.104;2023-05-17T01:57:32;20.70;;;11.10;;
46158;SDS011;31888;44.512;26.104;2023-05-17T02:00:01;24.45;;;9.40;;
46158;SDS011;31888;44.512;26.104;2023-05-17T02:02:37;18.38;;;9.25;;
46158;SDS011;31888;44.512;26.104;2023-05-17T02:05:04;17.17;;;8.80;;
46158;SDS011;31888;44.512;26.104;2023-05-17T02:07:29;19.85;;;9.45;;
46158;SDS011;31888;44.512;26.104;2023-05-17T02:09:54;22.40;;;10.25;;
46158;SDS011;31888;44.512;26.104;2023-05-17T02:12:19;29.85;;;9.50;;
46158;SDS011;31888;44.512;26.104;2023-05-17T02:14:44;18.10;;;8.85;;
46158;SDS011;31888;44.512;26.104;2023-05-17T02:17:10;16.10;;;8.73;;
46158;SDS011;31888;44.512;26.104;2023-05-17T02:19:35;17.95;;;9.20;;
46158;SDS011;31888;44.512;26.104;2023-05-17T02:22:01;18.38;;;9.52;;
46158;SDS011;31888;44.512;26.104;2023-05-17T02:24:26;18.60;;;10.10;;
46158;SDS011;31888;44.512;26.104;2023-05-17T02:26:51;20.38;;;9.65;;
46158;SDS011;31888;44.512;26.104;2023-05-17T02:29:16;22.95;;;9.55;;
46158;SDS011;31888;44.512;26.104;2023-05-17T02:31:41;18.15;;;9.68;;
46158;SDS011;31888;44.512;26.104;2023-05-17T02:34:07;20.23;;;9.27;;
46158;SDS011;31888;44.512;26.104;2023-05-17T02:36:32;16.02;;;8.52;;
46158;SDS011;31888;44.512;26.104;2023-05-17T02:38:56;24.45;;;8.57;;
46158;SDS011;31888;44.512;26.104;2023-05-17T02:41:21;18.45;;;8.45;;
46158;SDS011;31888;44.512;26.104;2023-05-17T02:43:46;18.33;;;9.13;;
46158;SDS011;31888;44.512;26.104;2023-05-17T02:46:11;21.45;;;8.88;;
46158;SDS011;31888;44.512;26.104;2023-05-17T02:48:35;17.52;;;8.27;;
46158;SDS011;31888;44.512;26.104;2023-05-17T02:51:01;16.80;;;8.02;;
46158;SDS011;31888;44.512;26.104;2023-05-17T02:53:26;15.77;;;8.23;;
46158;SDS011;31888;44.512;26.104;2023-05-17T02:55:51;14.82;;;8.65;;
46158;SDS011;31888;44.512;26.104;2023-05-17T02:58:20;21.55;;;9.23;;
46158;SDS011;31888;44.512;26.104;2023-05-17T03:00:45;14.50;;;7.85;;
46158;SDS011;31888;44.512;26.104;2023-05-17T03:03:10;16.55;;;8.77;;
46158;SDS011;31888;44.512;26.104;2023-05-17T03:05:35;20.35;;;8.35;;
46158;SDS011;31888;44.512;26.104;2023-05-17T03:08:01;16.90;;;8.00;;
46158;SDS011;31888;44.512;26.104;2023-05-17T03:10:26;21.90;;;8.85;;
46158;SDS011;31888;44.512;26.104;2023-05-17T03:12:51;17.25;;;7.72;;
46158;SDS011;31888;44.512;26.104;2023-05-17T03:15:18;20.67;;;8.85;;
46158;SDS011;31888;44.512;26.104;2023-05-17T03:17:44;18.15;;;7.13;;
46158;SDS011;31888;44.512;26.104;2023-05-17T03:20:11;13.15;;;8.10;;
46158;SDS011;31888;44.512;26.104;2023-05-17T03:22:36;14.57;;;7.88;;
46158;SDS011;31888;44.512;26.104;2023-05-17T03:25:05;15.23;;;7.88;;
46158;SDS011;31888;44.512;26.104;2023-05-17T03:27:31;15.52;;;7.25;;
46158;SDS011;31888;44.512;26.104;2023-05-17T03:29:56;19.02;;;7.50;;
46158;SDS011;31888;44.512;26.104;2023-05-17T03:32:21;16.98;;;7.38;;
46158;SDS011;31888;44.512;26.104;2023-05-17T03:34:46;16.75;;;7.93;;
46158;SDS011;31888;44.512;26.104;2023-05-17T03:37:11;14.93;;;7.65;;
46158;SDS011;31888;44.512;26.104;2023-05-17T03:39:37;16.10;;;7.22;;
46158;SDS011;31888;44.512;26.104;2023-05-17T03:42:03;17.98;;;7.60;;
46158;SDS011;31888;44.512;26.104;2023-05-17T03:44:30;17.70;;;8.32;;
46158;SDS011;31888;44.512;26.104;2023-05-17T03:46:55;19.80;;;7.97;;
46158;SDS011;31888;44.512;26.104;2023-05-17T03:49:19;15.18;;;7.10;;
46158;SDS011;31888;44.512;26.104;2023-05-17T03:51:45;17.05;;;6.70;;
46158;SDS011;31888;44.512;26.104;2023-05-17T03:54:12;15.65;;;7.25;;
46158;SDS011;31888;44.512;26.104;2023-05-17T03:56:36;11.90;;;7.15;;
46158;SDS011;31888;44.512;26.104;2023-05-17T03:59:03;17.85;;;7.68;;
46158;SDS011;31888;44.512;26.104;2023-05-17T04:01:27;15.30;;;6.68;;
46158;SDS011;31888;44.512;26.104;2023-05-17T04:03:52;16.63;;;6.95;;
46158;SDS011;31888;44.512;26.104;2023-05-17T04:06:18;19.50;;;7.47;;
46158;SDS011;31888;44.512;26.104;2023-05-17T04:08:43;15.32;;;6.95;;
46158;SDS011;31888;44.512;26.104;2023-05-17T04:11:08;15.73;;;6.90;;
46158;SDS011;31888;44.512;26.104;2023-05-17T04:13:35;11.98;;;6.00;;
46158;SDS011;31888;44.512;26.104;2023-05-17T04:16:02;16.02;;;8.77;;
46158;SDS011;31888;44.512;26.104;2023-05-17T04:18:27;17.50;;;7.22;;
46158;SDS011;31888;44.512;26.104;2023-05-17T04:20:53;16.05;;;6.50;;
46158;SDS011;31888;44.512;26.104;2023-05-17T04:23:19;12.50;;;6.93;;
46158;SDS011;31888;44.512;26.104;2023-05-17T04:25:43;17.40;;;6.30;;
46158;SDS011;31888;44.512;26.104;2023-05-17T04:28:09;16.13;;;6.28;;
46158;SDS011;31888;44.512;26.104;2023-05-17T04:30:34;15.35;;;7.43;;
46158;SDS011;31888;44.512;26.104;2023-05-17T04:33:00;17.17;;;7.05;;
46158;SDS011;31888;44.512;26.104;2023-05-17T04:35:26;13.07;;;6.18;;
46158;SDS011;31888;44.512;26.104;2023-05-17T04:37:51;14.95;;;6.75;;
46158;SDS011;31888;44.512;26.104;2023-05-17T04:40:17;16.73;;;7.18;;
46158;SDS011;31888;44.512;26.104;2023-05-17T04:42:43;13.55;;;6.07;;
46158;SDS011;31888;44.512;26.104;2023-05-17T04:45:09;15.18;;;6.38;;
46158;SDS011;31888;44.512;26.104;2023-05-17T04:47:46;11.57;;;6.50;;
46158;SDS011;31888;44.512;26.104;2023-05-17T04:50:15;14.70;;;6.43;;
46158;SDS011;31888;44.512;26.104;2023-05-17T04:52:40;23.80;;;8.32;;
46158;SDS011;31888;44.512;26.104;2023-05-17T04:55:06;15.95;;;7.30;;
46158;SDS011;31888;44.512;26.104;2023-05-17T04:57:32;21.00;;;6.78;;
46158;SDS011;31888;44.512;26.104;2023-05-17T05:00:00;11.60;;;6.57;;
46158;SDS011;31888;44.512;26.104;2023-05-17T05:02:27;15.63;;;6.22;;
46158;SDS011;31888;44.512;26.104;2023-05-17T05:05:02;14.75;;;6.57;;
46158;SDS011;31888;44.512;26.104;2023-05-17T05:07:31;8.98;;;5.03;;
46158;SDS011;31888;44.512;26.104;2023-05-17T05:09:58;14.10;;;6.20;;
46158;SDS011;31888;44.512;26.104;2023-05-17T05:12:25;19.58;;;6.82;;
46158;SDS011;31888;44.512;26.104;2023-05-17T05:14:50;16.17;;;6.35;;
46158;SDS011;31888;44.512;26.104;2023-05-17T05:17:15;22.98;;;7.50;;
46158;SDS011;31888;44.512;26.104;2023-05-17T05:19:41;15.05;;;6.45;;
46158;SDS011;31888;44.512;26.104;2023-05-17T05:22:07;17.35;;;5.78;;
46158;SDS011;31888;44.512;26.104;2023-05-17T05:24:35;11.85;;;5.53;;
46158;SDS011;31888;44.512;26.104;2023-05-17T05:27:00;20.67;;;7.07;;
46158;SDS011;31888;44.512;26.104;2023-05-17T05:29:30;18.00;;;5.70;;
46158;SDS011;31888;44.512;26.104;2023-05-17T05:31:57;19.63;;;7.45;;
46158;SDS011;31888;44.512;26.104;2023-05-17T05:34:26;19.73;;;6.97;;
46158;SDS011;31888;44.512;26.104;2023-05-17T05:36:55;11.88;;;7.32;;
46158;SDS011;31888;44.512;26.104;2023-05-17T05:39:20;18.40;;;6.93;;
46158;SDS011;31888;44.512;26.104;2023-05-17T05:41:46;15.95;;;6.93;;
46158;SDS011;31888;44.512;26.104;2023-05-17T05:44:11;19.10;;;6.95;;
46158;SDS011;31888;44.512;26.104;2023-05-17T05:46:36;15.05;;;6.93;;
46158;SDS011;31888;44.512;26.104;2023-05-17T05:49:01;18.23;;;7.90;;
46158;SDS011;31888;44.512;26.104;2023-05-17T05:51:28;20.38;;;6.90;;
46158;SDS011;31888;44.512;26.104;2023-05-17T05:53:53;19.13;;;6.88;;
46158;SDS011;31888;44.512;26.104;2023-05-17T05:56:18;16.48;;;7.22;;
46158;SDS011;31888;44.512;26.104;2023-05-17T05:58:44;16.77;;;7.18;;
46158;SDS011;31888;44.512;26.104;2023-05-17T06:01:09;15.30;;;7.13;;
46158;SDS011;31888;44.512;26.104;2023-05-17T06:03:34;17.33;;;8.00;;
46158;SDS011;31888;44.512;26.104;2023-05-17T06:06:00;17.02;;;7.15;;
46158;SDS011;31888;44.512;26.104;2023-05-17T06:08:25;17.90;;;7.38;;
46158;SDS011;31888;44.512;26.104;2023-05-17T06:10:50;18.63;;;8.30;;
46158;SDS011;31888;44.512;26.104;2023-05-17T06:13:14;17.23;;;8.15;;
46158;SDS011;31888;44.512;26.104;2023-05-17T06:15:41;21.75;;;8.77;;
46158;SDS011;31888;44.512;26.104;2023-05-17T06:18:06;18.73;;;8.45;;
46158;SDS011;31888;44.512;26.104;2023-05-17T06:20:33;23.65;;;9.52;;
46158;SDS011;31888;44.512;26.104;2023-05-17T06:22:59;20.90;;;9.13;;
46158;SDS011;31888;44.512;26.104;2023-05-17T06:25:26;19.95;;;8.68;;
46158;SDS011;31888;44.512;26.104;2023-05-17T06:27:51;20.38;;;8.82;;
46158;SDS011;31888;44.512;26.104;2023-05-17T06:30:16;29.50;;;9.25;;
46158;SDS011;31888;44.512;26.104;2023-05-17T06:32:43;16.00;;;8.77;;
46158;SDS011;31888;44.512;26.104;2023-05-17T06:35:09;24.63;;;9.00;;
46158;SDS011;31888;44.512;26.104;2023-05-17T06:37:34;22.58;;;9.48;;
46158;SDS011;31888;44.512;26.104;2023-05-17T06:40:03;21.88;;;8.30;;
46158;SDS011;31888;44.512;26.104;2023-05-17T06:42:38;21.92;;;7.82;;
46158;SDS011;31888;44.512;26.104;2023-05-17T06:45:04;19.33;;;8.20;;
46158;SDS011;31888;44.512;26.104;2023-05-17T06:47:30;16.83;;;8.07;;
46158;SDS011;31888;44.512;26.104;2023-05-17T06:49:57;20.38;;;8.05;;
46158;SDS011;31888;44.512;26.104;2023-05-17T06:52:34;20.50;;;8.02;;
46158;SDS011;31888;44.512;26.104;2023-05-17T06:55:01;14.23;;;7.07;;
46158;SDS011;31888;44.512;26.104;2023-05-17T06:57:28;18.45;;;8.52;;
46158;SDS011;31888;44.512;26.104;2023-05-17T06:59:53;25.05;;;8.55;;
46158;SDS011;31888;44.512;26.104;2023-05-17T07:02:19;14.77;;;7.63;;
46158;SDS011;31888;44.512;26.104;2023-05-17T07:04:46;18.30;;;8.68;;
46158;SDS011;31888;44.512;26.104;2023-05-17T07:07:12;21.73;;;7.70;;
46158;SDS011;31888;44.512;26.104;2023-05-17T07:09:37;21.83;;;8.25;;
46158;SDS011;31888;44.512;26.104;2023-05-17T07:12:10;15.95;;;7.20;;
46158;SDS011;31888;44.512;26.104;2023-05-17T07:14:34;19.48;;;7.75;;
46158;SDS011;31888;44.512;26.104;2023-05-17T07:16:59;20.13;;;8.63;;
46158;SDS011;31888;44.512;26.104;2023-05-17T07:19:24;17.25;;;8.50;;
46158;SDS011;31888;44.512;26.104;2023-05-17T07:21:49;25.38;;;9.20;;
46158;SDS011;31888;44.512;26.104;2023-05-17T07:24:15;26.35;;;9.23;;
46158;SDS011;31888;44.512;26.104;2023-05-17T07:26:42;15.93;;;8.45;;
46158;SDS011;31888;44.512;26.104;2023-05-17T07:29:06;21.38;;;9.02;;
46158;SDS011;31888;44.512;26.104;2023-05-17T07:31:31;21.10;;;8.98;;
46158;SDS011;31888;44.512;26.104;2023-05-17T07:33:57;19.48;;;10.57;;
46158;SDS011;31888;44.512;26.104;2023-05-17T07:36:25;24.38;;;9.35;;
46158;SDS011;31888;44.512;26.104;2023-05-17T07:38:52;15.30;;;8.55;;
46158;SDS011;31888;44.512;26.104;2023-05-17T07:41:19;18.45;;;8.93;;
46158;SDS011;31888;44.512;26.104;2023-05-17T07:43:45;19.75;;;8.40;;
46158;SDS011;31888;44.512;26.104;2023-05-17T07:46:12;21.83;;;8.38;;
46158;SDS011;31888;44.512;26.104;2023-05-17T07:48:37;25.48;;;8.05;;
46158;SDS011;31888;44.512;26.104;2023-05-17T07:51:02;18.85;;;8.15;;
46158;SDS011;31888;44.512;26.104;2023-05-17T07:53:32;25.75;;;8.00;;
46158;SDS011;31888;44.512;26.104;2023-05-17T07:55:57;18.20;;;7.20;;
46158;SDS011;31888;44.512;26.104;2023-05-17T07:58:24;19.90;;;6.95;;
46158;SDS011;31888;44.512;26.104;2023-05-17T08:00:49;13.27;;;6.15;;
46158;SDS011;31888;44.512;26.104;2023-05-17T08:03:14;16.52;;;6.55;;
46158;SDS011;31888;44.512;26.104;2023-05-17T08:05:39;17.35;;;6.35;;
46158;SDS011;31888;44.512;26.104;2023-05-17T08:08:04;13.45;;;7.18;;
46158;SDS011;31888;44.512;26.104;2023-05-17T08:10:29;18.90;;;6.10;;
46158;SDS011;31888;44.512;26.104;2023-05-17T08:12:56;16.98;;;4.95;;
46158;SDS011;31888;44.512;26.104;2023-05-17T08:15:23;13.20;;;5.70;;
46158;SDS011;31888;44.512;26.104;2023-05-17T08:17:48;10.13;;;5.10;;
46158;SDS011;31888;44.512;26.104;2023-05-17T08:20:13;15.05;;;6.40;;
46158;SDS011;31888;44.512;26.104;2023-05-17T08:22:38;16.10;;;5.38;;
46158;SDS011;31888;44.512;26.104;2023-05-17T08:25:03;13.90;;;5.97;;
46158;SDS011;31888;44.512;26.104;2023-05-17T08:27:29;26.08;;;6.20;;
46158;SDS011;31888;44.512;26.104;2023-05-17T08:29:54;11.80;;;5.22;;
46158;SDS011;31888;44.512;26.104;2023-05-17T08:32:21;9.65;;;5.13;;
46158;SDS011;31888;44.512;26.104;2023-05-17T08:34:47;15.10;;;4.80;;
46158;SDS011;31888;44.512;26.104;2023-05-17T08:37:12;11.77;;;5.18;;
46158;SDS011;31888;44.512;26.104;2023-05-17T08:39:37;17.23;;;5.57;;
46158;SDS011;31888;44.512;26.104;2023-05-17T08:42:02;12.48;;;5.75;;
46158;SDS011;31888;44.512;26.104;2023-05-17T08:44:30;12.40;;;6.00;;
46158;SDS011;31888;44.512;26.104;2023-05-17T08:46:55;14.55;;;6.53;;
46158;SDS011;31888;44.512;26.104;2023-05-17T08:49:24;19.33;;;5.85;;
46158;SDS011;31888;44.512;26.104;2023-05-17T08:51:53;10.73;;;6.13;;
46158;SDS011;31888;44.512;26.104;2023-05-17T08:54:20;10.50;;;6.28;;
46158;SDS011;31888;44.512;26.104;2023-05-17T08:56:45;14.15;;;8.23;;
46158;SDS011;31888;44.512;26.104;2023-05-17T08:59:14;13.52;;;6.53;;
46158;SDS011;31888;44.512;26.104;2023-05-17T09:01:39;16.83;;;6.65;;
46158;SDS011;31888;44.512;26.104;2023-05-17T09:04:07;14.30;;;6.38;;
46158;SDS011;31888;44.512;26.104;2023-05-17T09:06:34;17.10;;;7.40;;
46158;SDS011;31888;44.512;26.104;2023-05-17T09:08:59;10.55;;;7.15;;
46158;SDS011;31888;44.512;26.104;2023-05-17T09:11:26;15.00;;;6.80;;
46158;SDS011;31888;44.512;26.104;2023-05-17T09:13:52;14.32;;;6.38;;
46158;SDS011;31888;44.512;26.104;2023-05-17T09:16:17;12.63;;;6.22;;
46158;SDS011;31888;44.512;26.104;2023-05-17T09:18:45;9.93;;;7.03;;
46158;SDS011;31888;44.512;26.104;2023-05-17T09:21:17;22.23;;;8.27;;
46158;SDS011;31888;44.512;26.104;2023-05-17T09:23:45;14.25;;;7.53;;
46158;SDS011;31888;44.512;26.104;2023-05-17T09:26:36;24.10;;;9.15;;
46158;SDS011;31888;44.512;26.104;2023-05-17T09:29:05;22.83;;;8.70;;
46158;SDS011;31888;44.512;26.104;2023-05-17T09:31:31;21.85;;;7.95;;
46158;SDS011;31888;44.512;26.104;2023-05-17T09:33:57;23.30;;;8.77;;
46158;SDS011;31888;44.512;26.104;2023-05-17T09:36:23;16.77;;;7.60;;
46158;SDS011;31888;44.512;26.104;2023-05-17T09:38:54;19.58;;;8.40;;
46158;SDS011;31888;44.512;26.104;2023-05-17T09:41:22;19.30;;;7.53;;
46158;SDS011;31888;44.512;26.104;2023-05-17T09:43:49;14.45;;;8.15;;
46158;SDS011;31888;44.512;26.104;2023-05-17T09:46:18;17.13;;;8.18;;
46158;SDS011;31888;44.512;26.104;2023-05-17T09:48:43;15.30;;;7.65;;
46158;SDS011;31888;44.512;26.104;2023-05-17T09:51:08;15.40;;;7.20;;
46158;SDS011;31888;44.512;26.104;2023-05-17T09:53:33;14.18;;;8.70;;
46158;SDS011;31888;44.512;26.104;2023-05-17T09:56:04;15.07;;;8.50;;
46158;SDS011;31888;44.512;26.104;2023-05-17T09:58:30;16.02;;;7.70;;
46158;SDS011;31888;44.512;26.104;2023-05-17T10:00:57;17.73;;;8.50;;
46158;SDS011;31888;44.512;26.104;2023-05-17T10:03:24;21.60;;;10.73;;
46158;SDS011;31888;44.512;26.104;2023-05-17T10:08:19;21.15;;;9.68;;
46158;SDS011;31888;44.512;26.104;2023-05-17T10:10:47;18.90;;;9.07;;
46158;SDS011;31888;44.512;26.104;2023-05-17T10:13:15;16.67;;;8.65;;
46158;SDS011;31888;44.512;26.104;2023-05-17T10:15:46;14.15;;;8.90;;
46158;SDS011;31888;44.512;26.104;2023-05-17T10:18:14;16.08;;;8.18;;
46158;SDS011;31888;44.512;26.104;2023-05-17T10:20:40;16.08;;;8.80;;
46158;SDS011;31888;44.512;26.104;2023-05-17T10:23:06;17.92;;;8.32;;
46158;SDS011;31888;44.512;26.104;2023-05-17T10:25:33;16.08;;;8.40;;
46158;SDS011;31888;44.512;26.104;2023-05-17T10:28:05;18.88;;;7.95;;
46158;SDS011;31888;44.512;26.104;2023-05-17T10:30:32;20.45;;;9.10;;
46158;SDS011;31888;44.512;26.104;2023-05-17T10:32:58;32.22;;;8.40;;
46158;SDS011;31888;44.512;26.104;2023-05-17T10:35:24;16.48;;;8.18;;
46158;SDS011;31888;44.512;26.104;2023-05-17T10:37:51;19.42;;;8.02;;
46158;SDS011;31888;44.512;26.104;2023-05-17T10:40:16;17.23;;;8.23;;
46158;SDS011;31888;44.512;26.104;2023-05-17T10:42:44;21.77;;;7.88;;
46158;SDS011;31888;44.512;26.104;2023-05-17T10:45:13;18.63;;;7.80;;
46158;SDS011;31888;44.512;26.104;2023-05-17T10:47:44;18.08;;;7.40;;
46158;SDS011;31888;44.512;26.104;2023-05-17T10:50:11;14.27;;;7.40;;
46158;SDS011;31888;44.512;26.104;2023-05-17T10:52:37;19.08;;;7.43;;
46158;SDS011;31888;44.512;26.104;2023-05-17T10:55:08;14.15;;;7.93;;
46158;SDS011;31888;44.512;26.104;2023-05-17T10:57:34;12.60;;;7.05;;
46158;SDS011;31888;44.512;26.104;2023-05-17T11:00:18;13.20;;;7.72;;
46158;SDS011;31888;44.512;26.104;2023-05-17T11:02:46;11.73;;;7.47;;
46158;SDS011;31888;44.512;26.104;2023-05-17T11:05:21;13.52;;;7.65;;
46158;SDS011;31888;44.512;26.104;2023-05-17T11:07:50;13.23;;;7.63;;
46158;SDS011;31888;44.512;26.104;2023-05-17T11:10:17;18.25;;;9.43;;
46158;SDS011;31888;44.512;26.104;2023-05-17T11:12:42;13.10;;;8.30;;
46158;SDS011;31888;44.512;26.104;2023-05-17T11:15:10;14.38;;;8.50;;
46158;SDS011;31888;44.512;26.104;2023-05-17T11:17:50;19.83;;;9.10;;
46158;SDS011;31888;44.512;26.104;2023-05-17T11:20:39;15.18;;;8.38;;
46158;SDS011;31888;44.512;26.104;2023-05-17T11:23:14;16.75;;;8.82;;
46158;SDS011;31888;44.512;26.104;2023-05-17T11:25:44;16.77;;;8.25;;
46158;SDS011;31888;44.512;26.104;2023-05-17T11:28:16;16.30;;;9.50;;
46158;SDS011;31888;44.512;26.104;2023-05-17T11:30:42;20.10;;;10.38;;
46158;SDS011;31888;44.512;26.104;2023-05-17T11:33:20;16.40;;;9.73;;
46158;SDS011;31888;44.512;26.104;2023-05-17T11:36:05;14.23;;;9.27;;
46158;SDS011;31888;44.512;26.104;2023-05-17T11:38:39;15.95;;;9.10;;
46158;SDS011;31888;44.512;26.104;2023-05-17T11:41:17;15.25;;;8.55;;
46158;SDS011;31888;44.512;26.104;2023-05-17T11:43:49;16.60;;;9.35;;
46158;SDS011;31888;44.512;26.104;2023-05-17T11:46:18;15.35;;;9.73;;
46158;SDS011;31888;44.512;26.104;2023-05-17T11:48:47;13.35;;;8.65;;
46158;SDS011;31888;44.512;26.104;2023-05-17T11:51:16;17.13;;;8.60;;
46158;SDS011;31888;44.512;26.104;2023-05-17T11:53:55;22.05;;;9.18;;
46158;SDS011;31888;44.512;26.104;2023-05-17T11:59:07;20.83;;;8.88;;
46158;SDS011;31888;44.512;26.104;2023-05-17T12:01:41;23.85;;;9.10;;
46158;SDS011;31888;44.512;26.104;2023-05-17T12:08:04;14.85;;;9.07;;
46158;SDS011;31888;44.512;26.104;2023-05-17T12:10:29;16.33;;;9.27;;
46158;SDS011;31888;44.512;26.104;2023-05-17T12:12:57;16.85;;;9.02;;
46158;SDS011;31888;44.512;26.104;2023-05-17T12:15:30;22.02;;;9.13;;
46158;SDS011;31888;44.512;26.104;2023-05-17T12:17:55;14.52;;;7.72;;
46158;SDS011;31888;44.512;26.104;2023-05-17T12:20:25;13.48;;;7.65;;
46158;SDS011;31888;44.512;26.104;2023-05-17T12:22:55;12.60;;;8.02;;
46158;SDS011;31888;44.512;26.104;2023-05-17T12:25:22;14.02;;;8.73;;
46158;SDS011;31888;44.512;26.104;2023-05-17T12:27:50;15.07;;;8.25;;
46158;SDS011;31888;44.512;26.104;2023-05-17T12:32:57;19.88;;;8.40;;
46158;SDS011;31888;44.512;26.104;2023-05-17T12:35:22;25.02;;;9.05;;
46158;SDS011;31888;44.512;26.104;2023-05-17T12:37:52;24.63;;;9.32;;
46158;SDS011;31888;44.512;26.104;2023-05-17T12:40:17;18.95;;;8.63;;
46158;SDS011;31888;44.512;26.104;2023-05-17T12:42:46;13.15;;;7.35;;
46158;SDS011;31888;44.512;26.104;2023-05-17T12:45:11;17.15;;;8.80;;
46158;SDS011;31888;44.512;26.104;2023-05-17T12:47:38;17.33;;;8.48;;
46158;SDS011;31888;44.512;26.104;2023-05-17T12:50:04;19.85;;;8.68;;
46158;SDS011;31888;44.512;26.104;2023-05-17T12:52:32;14.20;;;8.07;;
46158;SDS011;31888;44.512;26.104;2023-05-17T12:54:58;11.53;;;8.03;;
46158;SDS011;31888;44.512;26.104;2023-05-17T12:57:26;12.32;;;8.55;;
46158;SDS011;31888;44.512;26.104;2023-05-17T12:59:53;14.02;;;8.10;;
46158;SDS011;31888;44.512;26.104;2023-05-17T13:02:18;20.35;;;8.75;;
46158;SDS011;31888;44.512;26.104;2023-05-17T13:04:43;13.70;;;6.72;;
46158;SDS011;31888;44.512;26.104;2023-05-17T13:07:08;18.67;;;5.38;;
46158;SDS011;31888;44.512;26.104;2023-05-17T13:09:33;13.88;;;4.63;;
46158;SDS011;31888;44.512;26.104;2023-05-17T13:12:11;14.02;;;5.18;;
46158;SDS011;31888;44.512;26.104;2023-05-17T13:14:43;7.20;;;4.20;;
46158;SDS011;31888;44.512;26.104;2023-05-17T13:17:15;10.45;;;4.55;;
46158;SDS011;31888;44.512;26.104;2023-05-17T13:19:44;12.45;;;5.03;;
46158;SDS011;31888;44.512;26.104;2023-05-17T13:22:09;8.25;;;4.72;;
46158;SDS011;31888;44.512;26.104;2023-05-17T13:24:35;11.70;;;5.22;;
46158;SDS011;31888;44.512;26.104;2023-05-17T13:27:05;12.27;;;5.30;;
46158;SDS011;31888;44.512;26.104;2023-05-17T13:29:31;10.65;;;5.68;;
46158;SDS011;31888;44.512;26.104;2023-05-17T13:32:05;10.60;;;5.45;;
46158;SDS011;31888;44.512;26.104;2023-05-17T13:34:36;12.75;;;5.07;;
46158;SDS011;31888;44.512;26.104;2023-05-17T13:37:02;11.63;;;5.57;;
46158;SDS011;31888;44.512;26.104;2023-05-17T13:39:33;14.63;;;6.00;;
46158;SDS011;31888;44.512;26.104;2023-05-17T13:41:57;8.45;;;4.63;;
46158;SDS011;31888;44.512;26.104;2023-05-17T13:44:22;10.38;;;5.07;;
46158;SDS011;31888;44.512;26.104;2023-05-17T13:46:47;9.85;;;5.57;;
46158;SDS011;31888;44.512;26.104;2023-05-17T13:49:12;10.30;;;5.18;;
46158;SDS011;31888;44.512;26.104;2023-05-17T13:51:38;13.05;;;5.93;;
46158;SDS011;31888;44.512;26.104;2023-05-17T13:54:04;9.80;;;5.47;;
46158;SDS011;31888;44.512;26.104;2023-05-17T13:56:29;17.45;;;6.15;;
46158;SDS011;31888;44.512;26.104;2023-05-17T13:58:54;8.82;;;5.57;;
46158;SDS011;31888;44.512;26.104;2023-05-17T14:01:20;16.65;;;5.45;;
46158;SDS011;31888;44.512;26.104;2023-05-17T14:03:45;14.05;;;5.70;;
46158;SDS011;31888;44.512;26.104;2023-05-17T14:06:10;11.30;;;6.05;;
46158;SDS011;31888;44.512;26.104;2023-05-17T14:08:37;12.73;;;5.68;;
46158;SDS011;31888;44.512;26.104;2023-05-17T14:11:03;14.45;;;6.03;;
46158;SDS011;31888;44.512;26.104;2023-05-17T14:13:28;10.23;;;5.25;;
46158;SDS011;31888;44.512;26.104;2023-05-17T14:15:53;9.95;;;4.75;;
46158;SDS011;31888;44.512;26.104;2023-05-17T14:18:18;17.08;;;5.82;;
46158;SDS011;31888;44.512;26.104;2023-05-17T14:20:43;9.23;;;5.53;;
46158;SDS011;31888;44.512;26.104;2023-05-17T14:23:09;11.95;;;5.88;;
46158;SDS011;31888;44.512;26.104;2023-05-17T14:25:35;9.35;;;5.50;;
46158;SDS011;31888;44.512;26.104;2023-05-17T14:28:00;16.55;;;6.35;;
46158;SDS011;31888;44.512;26.104;2023-05-17T14:30:25;13.18;;;6.10;;
46158;SDS011;31888;44.512;26.104;2023-05-17T14:32:51;10.75;;;5.55;;
46158;SDS011;31888;44.512;26.104;2023-05-17T14:35:16;12.38;;;5.60;;